Time;durP1;ratioP1;P1;durP2;ratioP2;P2;SDS_P1;SDS_P2;PMS_P1;PMS_P2;Temp;Humidity;BMP_temperature;BMP_pressure;BME280_temperature;BME280_humidity;BME280_pressure;Samples;Min_cycle;Max_cycle;Signal;HPM_P1;HPM_P2
2021/12/16 00:06:15;;;;;;;15.27;2.03;;;8.40;85.30;;;;;;4158541;28;20033;-73
2021/12/16 00:08:20;;;;;;;13.70;2.70;;;8.30;85.20;;;;;;4149997;28;20163;-73
2021/12/16 00:10:28;;;;;;;19.10;2.23;;;8.40;85.30;;;;;;4158575;28;20029;-73
2021/12/16 00:35:09;;;;;;;17.95;2.13;;;8.40;85.00;;;;;;4157971;28;20103;-74
2021/12/16 00:37:10;;;;;;;11.15;2.13;;;8.40;85.10;;;;;;4157416;28;20025;-74
2021/12/16 00:39:13;;;;;;;12.40;1.98;;;8.40;85.00;;;;;;4186983;28;20024;-74
2021/12/16 00:41:14;;;;;;;15.82;2.00;;;8.40;85.00;;;;;;4171226;28;20028;-74
2021/12/16 00:43:28;;;;;;;16.30;2.97;;;8.40;85.00;;;;;;4159916;28;20464;-74
2021/12/16 00:47:49;;;;;;;13.82;2.22;;;8.40;85.00;;;;;;4160069;28;20039;-73
2021/12/16 00:49:52;;;;;;;12.68;2.15;;;8.40;85.00;;;;;;4160116;28;20769;-74
2021/12/16 00:54:13;;;;;;;11.30;2.38;;;8.40;85.00;;;;;;4154845;28;20049;-74
2021/12/16 00:56:15;;;;;;;15.68;3.17;;;8.40;85.00;;;;;;4152529;28;20543;-73
2021/12/16 00:58:19;;;;;;;11.05;1.60;;;8.40;84.90;;;;;;4158054;28;20028;-74
2021/12/16 01:00:24;;;;;;;13.00;2.78;;;8.40;85.00;;;;;;4140093;28;20032;-74
2021/12/16 01:02:48;;;;;;;11.55;1.70;;;8.40;85.00;;;;;;4157534;28;20569;-74
2021/12/16 01:07:12;;;;;;;10.63;2.15;;;8.40;85.00;;;;;;4158039;28;20041;-74
2021/12/16 01:49:25;;;;;;;6.78;1.30;;;8.30;85.50;;;;;;4154596;28;20029;-73
2021/12/16 01:51:36;;;;;;;10.10;1.42;;;8.30;85.60;;;;;;4151407;28;20029;-74
2021/12/16 01:56:03;;;;;;;14.93;1.88;;;8.30;85.70;;;;;;4140123;28;20073;-74
2021/12/16 01:58:12;;;;;;;11.00;1.25;;;8.30;85.80;;;;;;4146497;28;20459;-73
2021/12/16 02:00:29;;;;;;;11.68;1.85;;;8.30;85.80;;;;;;4156251;28;20499;-74
2021/12/16 02:03:05;;;;;;;12.13;1.50;;;8.30;85.80;;;;;;4150467;28;20496;-74
2021/12/16 02:07:33;;;;;;;12.65;1.67;;;8.30;85.80;;;;;;4156709;28;20493;-74
2021/12/16 02:09:39;;;;;;;6.00;1.60;;;8.30;85.80;;;;;;4154425;28;20033;-74
2021/12/16 02:27:18;;;;;;;18.55;1.75;;;8.30;85.80;;;;;;4157261;28;20502;-73
2021/12/16 02:36:12;;;;;;;;;;;8.30;86.00;;;;;;4157560;28;20101;-76
2021/12/16 02:38:16;;;;;;;12.10;1.88;;;8.30;86.20;;;;;;4144215;28;19909;-76
2021/12/16 02:40:17;;;;;;;13.45;2.00;;;8.30;86.10;;;;;;4132959;28;22195;-76
2021/12/16 02:42:21;;;;;;;8.52;1.55;;;8.30;86.00;;;;;;4173454;28;20053;-76
2021/12/16 02:44:34;;;;;;;19.05;2.05;;;8.30;86.00;;;;;;4160376;28;20100;-75
2021/12/16 02:48:54;;;;;;;12.13;2.05;;;8.30;86.20;;;;;;4170898;28;19916;-76
2021/12/16 02:51:01;;;;;;;13.13;2.05;;;8.30;86.10;;;;;;4155406;28;20029;-76
2021/12/16 02:53:02;;;;;;;21.67;2.70;;;8.30;86.00;;;;;;4145614;28;20033;-76
2021/12/16 02:55:03;;;;;;;10.98;2.33;;;8.30;86.10;;;;;;4155420;28;20157;-76
2021/12/16 02:57:04;;;;;;;12.85;2.20;;;8.30;86.10;;;;;;4121031;28;20142;-76
2021/12/16 02:59:05;;;;;;;11.10;1.88;;;8.30;86.20;;;;;;4155980;28;20033;-76
2021/12/16 03:01:11;;;;;;;15.02;2.25;;;8.30;86.30;;;;;;4136675;28;20033;-76
2021/12/16 03:03:11;;;;;;;9.38;1.67;;;8.20;86.30;;;;;;4152130;28;20049;-76
2021/12/16 03:05:12;;;;;;;17.13;2.53;;;8.30;86.40;;;;;;4155286;28;20115;-76
2021/12/16 03:07:14;;;;;;;14.18;1.70;;;8.20;86.40;;;;;;4158482;28;20442;-75
2021/12/16 03:09:17;;;;;;;12.48;2.45;;;8.20;86.40;;;;;;4157642;28;20060;-75
2021/12/16 03:13:35;;;;;;;17.38;2.33;;;8.20;86.50;;;;;;4155234;28;20026;-75
2021/12/16 03:20:01;;;;;;;13.02;2.20;;;8.20;87.00;;;;;;4160885;28;20499;-75
2021/12/16 03:22:04;;;;;;;9.60;2.63;;;8.10;87.10;;;;;;4132068;28;20027;-75
2021/12/16 03:37:29;;;;;;;8.63;2.65;;;8.20;86.80;;;;;;4153092;28;20116;-75
2021/12/16 03:39:30;;;;;;;8.05;1.85;;;8.20;86.80;;;;;;4145667;28;20034;-75
2021/12/16 03:41:31;;;;;;;8.25;1.88;;;8.30;86.80;;;;;;4140799;28;20035;-75
2021/12/16 03:43:32;;;;;;;8.77;2.13;;;8.30;86.70;;;;;;4158967;28;20040;-75
2021/12/16 03:48:16;;;;;;;6.47;1.63;;;8.30;86.60;;;;;;4152215;28;20139;-75
2021/12/16 03:50:19;;;;;;;11.73;1.90;;;8.30;86.60;;;;;;4142167;28;20042;-76
2021/12/16 03:52:20;;;;;;;12.90;1.70;;;8.30;87.30;;;;;;4173707;28;20404;-76
2021/12/16 03:54:22;;;;;;;12.73;2.33;;;8.30;86.50;;;;;;4158786;28;20025;-76
2021/12/16 03:56:23;;;;;;;8.27;1.52;;;8.30;86.60;;;;;;4158078;28;20103;-76
2021/12/16 03:58:24;;;;;;;8.48;1.95;;;8.30;86.50;;;;;;4145940;28;20033;-75
2021/12/16 04:00:28;;;;;;;12.93;2.53;;;8.30;86.50;;;;;;4157527;28;20080;-75
2021/12/16 04:02:31;;;;;;;10.75;2.20;;;8.30;87.30;;;;;;4159228;28;20377;-75
2021/12/16 04:04:32;;;;;;;11.27;2.55;;;8.30;86.60;;;;;;4156095;28;20812;-76
2021/12/16 04:06:34;;;;;;;14.80;2.75;;;8.30;86.50;;;;;;4159503;28;20084;-76
2021/12/16 04:08:34;;;;;;;22.42;3.75;;;8.20;86.50;;;;;;4159871;28;20033;-75
2021/12/16 04:10:40;;;;;;;14.95;2.45;;;8.30;86.60;;;;;;4157221;28;20033;-76
2021/12/16 04:12:40;;;;;;;10.20;1.85;;;8.20;86.50;;;;;;4175700;28;20029;-76
2021/12/16 04:14:41;;;;;;;14.80;2.42;;;8.30;86.80;;;;;;4160256;28;20630;-76
2021/12/16 04:16:47;;;;;;;9.95;2.25;;;8.20;86.70;;;;;;4155919;28;20033;-76
2021/12/16 04:18:48;;;;;;;12.52;2.42;;;8.30;86.70;;;;;;4158571;28;20022;-75
2021/12/16 04:20:48;;;;;;;19.80;2.70;;;8.30;86.60;;;;;;4158655;28;20032;-76
2021/12/16 04:22:52;;;;;;;15.82;2.30;;;8.20;86.40;;;;;;4160662;28;20025;-75
2021/12/16 04:24:53;;;;;;;7.28;1.90;;;8.20;86.30;;;;;;4158358;28;20039;-75
2021/12/16 04:26:55;;;;;;;12.35;2.13;;;8.20;86.40;;;;;;4127775;28;20662;-76
2021/12/16 04:28:56;;;;;;;12.55;1.90;;;8.20;86.20;;;;;;4159373;28;20120;-76
2021/12/16 04:30:57;;;;;;;10.05;1.65;;;8.30;86.20;;;;;;4157687;28;20045;-76
2021/12/16 04:32:58;;;;;;;6.25;1.67;;;8.20;86.00;;;;;;4126638;28;20040;-76
2021/12/16 04:34:59;;;;;;;12.43;1.88;;;8.30;85.80;;;;;;4157557;28;20603;-76
2021/12/16 04:37:00;;;;;;;11.52;2.38;;;8.30;85.70;;;;;;4161044;28;20057;-75
2021/12/16 04:39:03;;;;;;;12.23;2.20;;;8.30;85.50;;;;;;4157510;28;20127;-75
2021/12/16 04:41:05;;;;;;;13.65;1.83;;;8.30;85.40;;;;;;4151368;28;20491;-75
2021/12/16 04:43:06;;;;;;;11.90;2.10;;;8.20;85.20;;;;;;4140424;28;20112;-75
2021/12/16 04:45:08;;;;;;;9.07;1.80;;;8.20;85.00;;;;;;4151894;28;20021;-76
2021/12/16 04:47:09;;;;;;;21.55;2.63;;;8.20;85.00;;;;;;4140826;28;20825;-76
2021/12/16 04:49:10;;;;;;;14.43;2.72;;;8.20;84.80;;;;;;4159093;28;20053;-76
2021/12/16 04:51:11;;;;;;;20.67;2.15;;;8.20;84.80;;;;;;4157274;28;20033;-76
2021/12/16 04:53:11;;;;;;;11.73;2.00;;;8.30;84.80;;;;;;4156590;28;20427;-76
2021/12/16 04:55:12;;;;;;;16.48;2.67;;;8.20;84.70;;;;;;4170167;28;20036;-76
2021/12/16 04:57:13;;;;;;;28.50;2.67;;;8.20;84.60;;;;;;4155845;28;20041;-76
2021/12/16 04:59:16;;;;;;;12.60;2.22;;;8.20;84.60;;;;;;4152855;28;20029;-75
2021/12/16 05:01:17;;;;;;;13.13;2.00;;;8.20;84.60;;;;;;4152802;28;20033;-75
2021/12/16 05:03:18;;;;;;;15.27;2.28;;;8.10;84.50;;;;;;4158586;28;20039;-75
2021/12/16 05:05:20;;;;;;;16.35;2.25;;;8.20;84.50;;;;;;4154710;28;20553;-75
2021/12/16 05:07:23;;;;;;;20.88;3.20;;;8.10;84.40;;;;;;4156673;28;20029;-76
2021/12/16 05:10:03;;;;;;;;;;;8.20;84.40;;;;;;4157229;28;20026;-75
2021/12/16 05:11:47;;;;;;;12.73;2.30;;;8.10;84.40;;;;;;4156764;28;19914;-75
2021/12/16 05:13:50;;;;;;;;;;;8.10;84.30;;;;;;4155834;28;20045;-75
2021/12/16 05:15:52;;;;;;;22.30;2.85;;;8.10;84.40;;;;;;4156219;28;19913;-74
2021/12/16 05:17:57;;;;;;;14.05;2.70;;;8.10;84.10;;;;;;4142215;28;20478;-75
2021/12/16 05:20:02;;;;;;;19.08;2.42;;;8.10;84.10;;;;;;4121017;28;20561;-75
2021/12/16 05:24:26;;;;;;;27.77;3.15;;;8.10;84.20;;;;;;4142653;28;20076;-75
2021/12/16 05:26:28;;;;;;;25.55;4.30;;;8.10;84.10;;;;;;4139237;28;20034;-75
2021/12/16 05:28:29;;;;;;;22.83;3.75;;;8.10;84.00;;;;;;4157525;28;20084;-75
2021/12/16 05:30:30;;;;;;;22.25;3.45;;;8.10;84.10;;;;;;4151930;28;20026;-76
2021/12/16 05:32:31;;;;;;;22.25;3.15;;;8.00;84.20;;;;;;4154262;28;20121;-75
2021/12/16 05:34:31;;;;;;;17.88;2.88;;;8.00;84.30;;;;;;4154217;28;20033;-75
2021/12/16 05:36:32;;;;;;;31.00;4.57;;;8.00;84.60;;;;;;4140277;28;20062;-75
2021/12/16 05:38:33;;;;;;;37.10;4.22;;;7.90;84.50;;;;;;4154659;28;20044;-75
2021/12/16 05:40:34;;;;;;;26.85;3.60;;;8.00;84.50;;;;;;4151444;28;20017;-75
2021/12/16 05:42:34;;;;;;;29.75;5.55;;;8.00;84.70;;;;;;4156105;28;20113;-75
2021/12/16 05:44:35;;;;;;;30.27;3.83;;;7.90;84.70;;;;;;4140805;28;20109;-76
2021/12/16 05:46:37;;;;;;;30.25;3.85;;;8.00;84.70;;;;;;4153238;28;20587;-75
2021/12/16 05:48:39;;;;;;;20.77;3.20;;;7.90;84.70;;;;;;4156400;28;20419;-75
2021/12/16 05:50:41;;;;;;;24.63;3.78;;;7.90;84.60;;;;;;4156076;28;20037;-75
2021/12/16 05:52:42;;;;;;;22.02;3.28;;;7.90;84.50;;;;;;4122859;28;20049;-75
2021/12/16 05:54:42;;;;;;;33.10;3.67;;;8.00;84.50;;;;;;4155797;28;20037;-75
2021/12/16 05:56:44;;;;;;;29.23;4.75;;;8.00;84.30;;;;;;4123482;28;20037;-75
2021/12/16 05:58:45;;;;;;;25.30;3.80;;;8.00;84.30;;;;;;4156997;28;20074;-75
2021/12/16 06:00:54;;;;;;;28.80;4.22;;;8.00;84.20;;;;;;4157096;28;20431;-75
2021/12/16 06:02:55;;;;;;;40.95;4.65;;;8.00;84.00;;;;;;4158080;28;20042;-75
2021/12/16 06:04:55;;;;;;;25.63;3.70;;;7.90;84.10;;;;;;4154559;28;20587;-75
2021/12/16 06:06:56;;;;;;;36.58;4.28;;;7.80;84.00;;;;;;4158311;28;20028;-75
2021/12/16 06:08:57;;;;;;;29.85;3.70;;;7.90;83.90;;;;;;4158633;28;20040;-75
2021/12/16 06:12:58;;;;;;;33.35;4.65;;;7.70;83.70;;;;;;4157304;28;20033;-75
2021/12/16 06:15:18;;;;;;;26.45;4.70;;;7.70;83.70;;;;;;4155803;28;20025;-75
2021/12/16 06:27:25;;;;;;;32.38;4.95;;;7.60;83.60;;;;;;4142374;28;20470;-75
2021/12/16 06:28:57;;;;;;;29.38;3.67;;;7.40;83.50;;;;;;4138719;28;20045;-75
2021/12/16 06:30:57;;;;;;;28.38;3.67;;;7.30;83.40;;;;;;4141975;28;20562;-75
2021/12/16 06:32:58;;;;;;;29.25;3.92;;;7.40;83.40;;;;;;4156927;28;20022;-75
2021/12/16 06:34:59;;;;;;;28.90;3.97;;;7.30;83.40;;;;;;4153920;28;20029;-75
2021/12/16 06:36:59;;;;;;;32.63;4.75;;;7.30;83.40;;;;;;4156811;28;20049;-75
2021/12/16 06:39:00;;;;;;;23.95;3.60;;;7.20;83.30;;;;;;4157163;28;20025;-75
2021/12/16 06:41:01;;;;;;;28.08;3.92;;;7.20;83.40;;;;;;4155836;28;20028;-75
2021/12/16 06:43:03;;;;;;;26.30;3.50;;;7.20;83.60;;;;;;4139490;28;20470;-76
2021/12/16 06:45:12;;;;;;;25.75;4.35;;;7.10;83.50;;;;;;4150356;28;20499;-75
2021/12/16 06:47:19;;;;;;;36.58;3.65;;;7.10;83.50;;;;;;4148561;28;20495;-76
2021/12/16 06:49:21;;;;;;;24.48;4.22;;;7.10;83.50;;;;;;4151924;28;20558;-75
2021/12/16 06:51:34;;;;;;;32.55;4.68;;;7.00;83.50;;;;;;4171106;28;20037;-75
2021/12/16 06:53:50;;;;;;;27.33;3.53;;;7.00;83.50;;;;;;4161600;28;20057;-75
2021/12/16 06:56:02;;;;;;;25.23;3.88;;;6.90;83.60;;;;;;4143067;28;20466;-76
2021/12/16 06:58:14;;;;;;;28.38;3.83;;;6.90;83.70;;;;;;4161397;28;20025;-75
2021/12/16 07:00:22;;;;;;;23.13;3.67;;;6.80;83.70;;;;;;4160117;28;20191;-76
2021/12/16 07:04:33;;;;;;;35.42;4.15;;;6.80;83.80;;;;;;4161050;28;20017;-75
2021/12/16 07:06:34;;;;;;;32.15;4.70;;;6.80;83.80;;;;;;4160886;28;20334;-75
2021/12/16 07:08:35;;;;;;;27.98;3.75;;;6.70;83.70;;;;;;4156937;28;20205;-76
2021/12/16 07:10:35;;;;;;;35.55;4.18;;;6.70;83.70;;;;;;4154398;28;20037;-76
2021/12/16 07:12:38;;;;;;;27.98;3.42;;;6.70;83.80;;;;;;4160491;28;20034;-75
2021/12/16 07:14:40;;;;;;;28.58;3.88;;;6.70;83.80;;;;;;4144358;28;20030;-75
2021/12/16 07:16:44;;;;;;;22.13;3.63;;;6.60;83.70;;;;;;4157636;28;20114;-75
2021/12/16 07:18:45;;;;;;;22.88;3.60;;;6.70;83.80;;;;;;4144708;28;20123;-75
2021/12/16 07:20:45;;;;;;;21.00;3.28;;;6.50;83.70;;;;;;4153582;28;20034;-76
2021/12/16 07:22:46;;;;;;;26.40;3.85;;;6.50;83.70;;;;;;4158906;28;20053;-75
2021/12/16 07:24:46;;;;;;;25.83;4.35;;;6.50;83.80;;;;;;4145073;28;20048;-76
2021/12/16 07:26:47;;;;;;;28.27;4.32;;;6.50;83.90;;;;;;4155591;28;20038;-76
2021/12/16 07:28:48;;;;;;;28.10;3.92;;;6.40;83.90;;;;;;4152852;28;20068;-75
2021/12/16 07:30:49;;;;;;;34.20;3.80;;;6.40;84.00;;;;;;4158051;28;20060;-76
2021/12/16 07:32:50;;;;;;;27.30;4.43;;;6.30;84.00;;;;;;4161133;28;20025;-76
2021/12/16 07:34:51;;;;;;;30.42;4.20;;;6.30;84.10;;;;;;4153751;28;20038;-76
2021/12/16 07:36:52;;;;;;;25.75;3.70;;;6.30;84.20;;;;;;4157461;28;20514;-75
2021/12/16 07:38:53;;;;;;;23.73;3.40;;;6.20;84.20;;;;;;4158440;28;20030;-75
2021/12/16 07:40:54;;;;;;;26.92;3.67;;;6.20;84.40;;;;;;4139492;28;20028;-76
2021/12/16 07:45:05;;;;;;;25.20;3.92;;;6.20;84.50;;;;;;4157975;28;20029;-75
2021/12/16 07:47:10;;;;;;;31.35;4.38;;;6.10;84.50;;;;;;4155761;28;20088;-75
2021/12/16 07:49:13;;;;;;;36.75;3.92;;;6.10;84.60;;;;;;4159042;28;20331;-75
2021/12/16 07:51:14;;;;;;;23.60;3.92;;;6.10;84.60;;;;;;4142341;28;20415;-75
2021/12/16 07:53:15;;;;;;;31.30;4.50;;;6.00;84.70;;;;;;4148668;28;20510;-75
2021/12/16 07:55:16;;;;;;;33.65;4.20;;;6.00;84.70;;;;;;4142686;28;20026;-75
2021/12/16 07:57:16;;;;;;;28.50;4.03;;;6.00;84.90;;;;;;4158928;28;20455;-75
2021/12/16 07:59:17;;;;;;;21.33;4.43;;;5.90;85.00;;;;;;4159828;28;20253;-75
2021/12/16 08:01:18;;;;;;;27.70;3.90;;;5.90;85.30;;;;;;4160610;28;20025;-75
2021/12/16 08:03:19;;;;;;;28.02;3.75;;;5.90;85.50;;;;;;4158469;28;20042;-75
2021/12/16 08:05:21;;;;;;;28.65;3.88;;;5.80;85.80;;;;;;4153940;28;20369;-75
2021/12/16 08:07:22;;;;;;;29.45;4.25;;;5.90;86.10;;;;;;4160828;28;20156;-75
2021/12/16 08:09:23;;;;;;;36.90;5.75;;;5.90;86.40;;;;;;4159570;28;20033;-75
2021/12/16 08:11:24;;;;;;;30.88;5.03;;;5.80;86.60;;;;;;4158023;28;20041;-75
2021/12/16 08:13:25;;;;;;;32.22;3.63;;;5.90;87.10;;;;;;4158762;28;20032;-75
2021/12/16 08:15:26;;;;;;;35.47;3.85;;;5.80;87.30;;;;;;4143115;28;20120;-75
2021/12/16 08:17:26;;;;;;;33.42;4.70;;;5.90;87.60;;;;;;4156867;28;20440;-75
2021/12/16 08:19:27;;;;;;;37.00;5.00;;;5.80;87.50;;;;;;4156760;28;20352;-75
2021/12/16 08:21:29;;;;;;;28.23;3.45;;;5.80;87.50;;;;;;4147628;28;20042;-76
2021/12/16 08:23:30;;;;;;;36.70;3.55;;;5.90;87.50;;;;;;4150402;28;20040;-75
2021/12/16 08:25:30;;;;;;;37.78;4.30;;;5.80;87.40;;;;;;4168305;28;20029;-76
2021/12/16 08:27:33;;;;;;;38.10;3.92;;;5.80;87.30;;;;;;4137186;28;20033;-75
2021/12/16 08:29:33;;;;;;;38.83;4.27;;;5.80;87.10;;;;;;4150877;23;20136;-74
2021/12/16 08:31:34;;;;;;;32.03;3.72;;;5.80;87.10;;;;;;4131684;28;20281;-73
2021/12/16 08:33:35;;;;;;;25.25;4.00;;;5.90;86.90;;;;;;4137732;28;20482;-74
2021/12/16 08:35:37;;;;;;;31.02;3.97;;;5.80;86.70;;;;;;4131970;28;20038;-74
2021/12/16 08:37:39;;;;;;;27.15;4.10;;;5.80;86.70;;;;;;4124757;28;20030;-74
2021/12/16 08:39:40;;;;;;;49.20;4.53;;;5.80;86.60;;;;;;4121596;28;20027;-74
2021/12/16 08:41:44;;;;;;;34.08;3.63;;;5.80;86.70;;;;;;4138058;28;20523;-74
2021/12/16 08:43:45;;;;;;;30.27;3.38;;;5.80;86.70;;;;;;4137383;28;20040;-74
2021/12/16 08:45:46;;;;;;;26.80;4.32;;;5.70;86.70;;;;;;4123351;28;20540;-74
2021/12/16 08:47:47;;;;;;;32.38;3.80;;;5.80;86.70;;;;;;4137555;28;20542;-73
2021/12/16 08:49:48;;;;;;;37.72;4.15;;;5.70;86.70;;;;;;4135192;28;20041;-74
2021/12/16 08:51:51;;;;;;;38.45;4.22;;;5.70;86.80;;;;;;4129469;28;20038;-74
2021/12/16 08:53:51;;;;;;;36.50;4.30;;;5.80;86.90;;;;;;4125011;28;20499;-74
2021/12/16 08:55:54;;;;;;;28.55;3.30;;;5.70;87.10;;;;;;4138762;28;20041;-74
2021/12/16 08:57:56;;;;;;;33.15;4.25;;;5.70;87.20;;;;;;4139930;28;20080;-74
2021/12/16 08:59:56;;;;;;;28.63;3.88;;;5.70;87.40;;;;;;4122800;28;20069;-74
2021/12/16 09:01:57;;;;;;;31.40;4.80;;;5.70;87.50;;;;;;4137133;28;20038;-74
2021/12/16 09:03:58;;;;;;;26.70;4.88;;;5.70;87.50;;;;;;4138442;28;20493;-74
2021/12/16 09:05:59;;;;;;;33.90;4.32;;;5.80;87.60;;;;;;4139776;28;20152;-74
2021/12/16 09:07:59;;;;;;;24.98;4.82;;;5.70;87.60;;;;;;4140822;28;20072;-74
2021/12/16 09:10:00;;;;;;;34.50;4.05;;;5.80;87.70;;;;;;4122418;28;20097;-74
2021/12/16 09:12:15;;;;;;;26.50;3.80;;;5.80;87.90;;;;;;4138016;28;20114;-74
2021/12/16 09:14:15;;;;;;;31.17;3.42;;;5.80;88.00;;;;;;4125129;28;20038;-74
2021/12/16 09:16:17;;;;;;;33.33;4.18;;;5.80;88.20;;;;;;4134980;28;20575;-73
2021/12/16 09:18:22;;;;;;;28.38;4.88;;;5.90;88.30;;;;;;4139777;28;20326;-74
2021/12/16 09:20:24;;;;;;;31.88;4.65;;;5.90;88.40;;;;;;4137763;28;20026;-74
2021/12/16 09:22:25;;;;;;;43.92;4.10;;;5.90;88.40;;;;;;4106087;28;20255;-73
2021/12/16 09:24:25;;;;;;;23.85;3.58;;;5.90;88.40;;;;;;4134684;28;20037;-74
2021/12/16 09:26:27;;;;;;;39.20;3.80;;;6.00;88.50;;;;;;4140405;28;20037;-74
2021/12/16 09:28:28;;;;;;;36.30;5.78;;;6.00;88.60;;;;;;4137927;28;20095;-74
2021/12/16 09:30:30;;;;;;;41.45;4.38;;;6.00;88.70;;;;;;4118880;28;20090;-74
2021/12/16 09:32:32;;;;;;;27.63;4.37;;;6.00;88.70;;;;;;4133919;28;20117;-73
2021/12/16 09:34:33;;;;;;;22.38;4.18;;;6.10;88.80;;;;;;4138373;28;20076;-74
2021/12/16 09:36:39;;;;;;;30.35;4.43;;;6.10;89.00;;;;;;4137234;28;20381;-74
2021/12/16 09:38:42;;;;;;;23.55;3.45;;;6.10;89.00;;;;;;4131646;28;20085;-74
2021/12/16 09:40:49;;;;;;;26.27;3.92;;;6.20;89.80;;;;;;4138131;28;20510;-73
2021/12/16 09:42:50;;;;;;;28.73;4.38;;;6.20;89.00;;;;;;4123442;28;20417;-73
2021/12/16 09:44:51;;;;;;;24.60;3.20;;;6.30;89.00;;;;;;4139817;28;20091;-74
2021/12/16 09:46:53;;;;;;;27.98;3.63;;;6.30;89.00;;;;;;4140092;28;20061;-74
2021/12/16 09:48:56;;;;;;;37.85;4.72;;;6.30;88.90;;;;;;4138534;28;20038;-74
2021/12/16 09:50:57;;;;;;;29.83;3.70;;;6.40;88.80;;;;;;4122132;28;20109;-73
2021/12/16 09:52:58;;;;;;;39.33;4.50;;;6.40;88.70;;;;;;4140206;28;20068;-73
2021/12/16 09:54:59;;;;;;;36.78;5.05;;;6.50;88.60;;;;;;4120210;28;20121;-73
2021/12/16 09:57:00;;;;;;;27.50;4.20;;;6.50;88.50;;;;;;4140272;28;20034;-73
2021/12/16 09:59:01;;;;;;;32.85;3.22;;;6.50;88.30;;;;;;4121120;28;20027;-73
2021/12/16 10:01:02;;;;;;;28.77;4.15;;;6.50;88.00;;;;;;4136629;28;20051;-73
2021/12/16 10:03:04;;;;;;;33.17;4.05;;;6.60;87.90;;;;;;4138100;28;20022;-73
2021/12/16 10:05:07;;;;;;;29.50;3.28;;;6.60;87.60;;;;;;4136870;28;20472;-74
2021/12/16 10:07:14;;;;;;;27.13;3.75;;;6.70;87.40;;;;;;4123287;28;20026;-73
2021/12/16 10:09:15;;;;;;;27.50;3.92;;;6.70;87.30;;;;;;4152948;28;20507;-73
2021/12/16 10:11:16;;;;;;;23.52;3.55;;;6.80;87.00;;;;;;4137630;28;20088;-73
2021/12/16 10:13:23;;;;;;;29.77;3.45;;;6.80;86.70;;;;;;4122754;28;20072;-74
2021/12/16 10:17:34;;;;;;;29.80;3.72;;;6.90;86.20;;;;;;4138371;28;20046;-73
2021/12/16 10:19:35;;;;;;;41.67;4.38;;;6.90;86.00;;;;;;4137198;28;20102;-74
2021/12/16 10:21:36;;;;;;;20.45;2.95;;;7.00;85.70;;;;;;4121391;28;20478;-73
2021/12/16 10:23:42;;;;;;;28.33;3.70;;;7.00;85.70;;;;;;4138676;28;20766;-73
2021/12/16 10:25:45;;;;;;;27.42;3.92;;;7.00;85.40;;;;;;4138843;28;20170;-73
2021/12/16 10:28:06;;;;;;;34.47;3.60;;;7.00;85.10;;;;;;4120667;28;20525;-73
2021/12/16 10:30:08;;;;;;;31.85;4.80;;;7.10;85.00;;;;;;4136406;28;20038;-73
2021/12/16 10:32:43;;;;;;;24.88;4.43;;;7.10;84.80;;;;;;4136265;28;20404;-73
2021/12/16 10:34:58;;;;;;;32.55;4.15;;;7.10;84.70;;;;;;4131547;28;20117;-73
2021/12/16 10:36:59;;;;;;;36.17;4.65;;;7.10;84.60;;;;;;4116163;28;20504;-74
2021/12/16 10:39:23;;;;;;;30.90;5.03;;;7.10;84.40;;;;;;4137758;28;20516;-74
2021/12/16 10:41:29;;;;;;;19.83;3.35;;;7.20;84.20;;;;;;4137672;28;20041;-74
2021/12/16 10:43:36;;;;;;;27.35;3.97;;;7.20;84.00;;;;;;4137310;28;20669;-74
2021/12/16 10:45:41;;;;;;;21.65;3.53;;;7.20;83.70;;;;;;4138689;28;20029;-74
2021/12/16 10:47:52;;;;;;;22.63;3.05;;;7.30;83.30;;;;;;4136852;28;20064;-74
2021/12/16 10:49:53;;;;;;;22.92;2.97;;;7.30;83.20;;;;;;4135033;28;20052;-74
2021/12/16 10:51:56;;;;;;;21.73;3.03;;;7.30;83.20;;;;;;4136219;28;20396;-73
2021/12/16 10:54:07;;;;;;;21.83;3.92;;;7.30;83.50;;;;;;4137991;28;20218;-73
2021/12/16 10:56:08;;;;;;;17.80;2.75;;;7.30;82.80;;;;;;4137668;28;20429;-74
2021/12/16 10:58:09;;;;;;;27.77;2.72;;;7.30;82.80;;;;;;4138483;28;20030;-73
2021/12/16 11:00:13;;;;;;;17.15;3.00;;;7.30;82.50;;;;;;4137810;28;20051;-74
2021/12/16 11:02:29;;;;;;;13.38;2.50;;;7.40;82.50;;;;;;4136307;28;20030;-73
2021/12/16 11:04:48;;;;;;;20.63;3.53;;;7.40;82.10;;;;;;4116931;28;20102;-73
2021/12/16 11:07:11;;;;;;;21.45;2.60;;;7.40;81.90;;;;;;4137676;28;20111;-74
2021/12/16 11:09:24;;;;;;;15.73;3.00;;;7.40;81.70;;;;;;4127929;28;20153;-73
2021/12/16 11:11:29;;;;;;;22.58;2.55;;;7.50;81.40;;;;;;4115751;28;20602;-74
2021/12/16 11:13:31;;;;;;;17.00;2.95;;;7.50;81.00;;;;;;4134864;28;20084;-73
2021/12/16 11:15:39;;;;;;;27.17;3.70;;;7.50;81.00;;;;;;4134073;28;20112;-74
2021/12/16 11:18:06;;;;;;;20.58;2.65;;;7.50;80.90;;;;;;4120879;28;20034;-74
2021/12/16 11:20:11;;;;;;;23.17;2.60;;;7.50;80.90;;;;;;4131103;28;20052;-74
2021/12/16 11:22:15;;;;;;;22.45;3.08;;;7.50;80.80;;;;;;4139153;28;20108;-74
2021/12/16 11:24:25;;;;;;;19.05;2.38;;;7.50;80.60;;;;;;4137861;28;20034;-74
2021/12/16 11:26:29;;;;;;;13.15;2.55;;;7.60;80.40;;;;;;4119881;28;20030;-74
2021/12/16 11:28:36;;;;;;;27.35;2.63;;;7.60;80.30;;;;;;4129010;28;20039;-73
2021/12/16 11:30:36;;;;;;;17.35;2.53;;;7.50;80.10;;;;;;4135096;28;20597;-73
2021/12/16 11:32:45;;;;;;;22.05;2.40;;;7.60;79.80;;;;;;4138426;28;20064;-74
2021/12/16 11:34:45;;;;;;;22.17;3.10;;;7.60;79.90;;;;;;4137567;28;20052;-74
2021/12/16 11:36:47;;;;;;;14.20;2.20;;;7.60;79.80;;;;;;4133600;28;20439;-74
2021/12/16 11:38:54;;;;;;;11.88;2.10;;;7.60;79.90;;;;;;4117141;28;20273;-74
2021/12/16 11:41:05;;;;;;;14.82;2.13;;;7.60;79.80;;;;;;4140634;28;20109;-74
2021/12/16 11:43:06;;;;;;;17.05;3.22;;;7.60;79.70;;;;;;4138207;28;20029;-74
2021/12/16 11:45:07;;;;;;;12.63;2.38;;;7.70;79.30;;;;;;4138379;28;20516;-74
2021/12/16 11:47:22;;;;;;;21.00;2.90;;;7.60;79.30;;;;;;4141171;28;20296;-73
2021/12/16 11:49:38;;;;;;;19.58;2.15;;;7.70;80.10;;;;;;4122935;28;20519;-74
2021/12/16 11:51:44;;;;;;;16.40;2.58;;;7.70;79.10;;;;;;4135936;28;20096;-74
2021/12/16 11:53:53;;;;;;;13.15;1.77;;;7.80;79.20;;;;;;4141175;28;20594;-73
2021/12/16 11:55:54;;;;;;;19.92;2.50;;;7.70;79.10;;;;;;4138743;28;20096;-74
2021/12/16 11:58:00;;;;;;;11.35;2.35;;;7.70;79.10;;;;;;4140652;28;20029;-74
2021/12/16 12:00:13;;;;;;;16.42;2.40;;;7.70;79.00;;;;;;4124346;28;20049;-74
2021/12/16 12:02:39;;;;;;;17.65;2.17;;;7.70;78.80;;;;;;4142967;28;20037;-74
2021/12/16 12:04:40;;;;;;;14.00;2.13;;;7.70;78.80;;;;;;4139886;28;20134;-74
2021/12/16 12:06:43;;;;;;;15.23;2.35;;;7.80;78.70;;;;;;4140427;28;20078;-74
2021/12/16 12:08:45;;;;;;;;;;;7.80;78.60;;;;;;4141096;28;20505;-74
2021/12/16 12:11:06;;;;;;;17.42;1.98;;;7.80;78.50;;;;;;4138177;28;19913;-74
2021/12/16 12:13:09;;;;;;;19.70;2.15;;;7.80;78.50;;;;;;4123563;28;20354;-74
2021/12/16 12:15:10;;;;;;;25.33;3.80;;;7.70;78.40;;;;;;4123433;28;20117;-73
2021/12/16 12:17:21;;;;;;;12.40;2.38;;;7.70;78.10;;;;;;4149291;28;20612;-74
2021/12/16 12:19:24;;;;;;;20.65;3.20;;;7.80;78.30;;;;;;4138445;28;20049;-74
2021/12/16 12:21:34;;;;;;;17.27;2.30;;;7.70;78.10;;;;;;4142628;28;20034;-74
2021/12/16 12:23:34;;;;;;;17.98;2.13;;;7.70;78.00;;;;;;4137246;28;20393;-74
2021/12/16 12:25:35;;;;;;;20.33;2.83;;;7.70;78.00;;;;;;4133687;28;20025;-73
2021/12/16 12:27:35;;;;;;;12.68;2.30;;;7.70;78.00;;;;;;4133651;28;20053;-74
2021/12/16 12:29:44;;;;;;;14.65;2.13;;;7.70;78.20;;;;;;4138794;28;20038;-74
2021/12/16 12:31:53;;;;;;;20.75;3.00;;;7.80;78.30;;;;;;4133871;28;20570;-74
2021/12/16 12:33:54;;;;;;;16.95;2.38;;;7.60;78.30;;;;;;4137701;28;20029;-73
2021/12/16 12:35:55;;;;;;;14.55;2.72;;;7.70;78.30;;;;;;4139328;28;20542;-74
2021/12/16 12:37:57;;;;;;;16.42;2.85;;;7.70;78.30;;;;;;4134219;28;20042;-74
2021/12/16 12:40:08;;;;;;;13.30;3.03;;;7.60;78.20;;;;;;4135698;28;20068;-73
2021/12/16 12:42:09;;;;;;;19.35;2.72;;;7.70;78.30;;;;;;4123514;28;20804;-74
2021/12/16 12:44:10;;;;;;;14.77;2.20;;;7.70;78.20;;;;;;4120353;28;20106;-74
2021/12/16 12:46:13;;;;;;;16.23;2.75;;;7.60;78.30;;;;;;4133839;28;20120;-74
2021/12/16 12:48:15;;;;;;;;;;;7.70;78.30;;;;;;4138742;28;20038;-74
2021/12/16 12:50:24;;;;;;;20.83;2.60;;;7.70;78.20;;;;;;4144610;28;19949;-74
2021/12/16 12:52:27;;;;;;;13.05;2.50;;;7.70;78.20;;;;;;4121388;28;20038;-74
2021/12/16 12:54:30;;;;;;;14.73;2.30;;;7.70;78.30;;;;;;4128726;28;20517;-73
2021/12/16 12:56:32;;;;;;;15.75;2.50;;;7.70;78.30;;;;;;4137172;28;20037;-74
2021/12/16 12:58:34;;;;;;;18.23;2.70;;;7.60;78.40;;;;;;4136410;28;20141;-74
2021/12/16 13:00:53;;;;;;;16.00;2.25;;;7.60;78.40;;;;;;4119757;28;20091;-73
2021/12/16 13:03:02;;;;;;;11.35;2.80;;;7.60;78.50;;;;;;4140639;28;20038;-74
2021/12/16 13:05:16;;;;;;;13.02;2.30;;;7.60;78.50;;;;;;4121261;28;20034;-74
2021/12/16 13:07:18;;;;;;;23.58;3.75;;;7.60;78.60;;;;;;4137360;28;20040;-74
2021/12/16 13:09:27;;;;;;;17.10;3.67;;;7.60;78.70;;;;;;4134665;28;20412;-73
2021/12/16 13:11:29;;;;;;;14.07;2.60;;;7.50;78.70;;;;;;4137700;28;20652;-74
2021/12/16 13:13:35;;;;;;;17.88;4.22;;;7.50;78.90;;;;;;4107224;28;20027;-73